sensor_id;sensor_type;location;lat;lon;timestamp;pressure;altitude;pressure_sealevel;temperature;humidity
60099;BME280;62818;49.394;8.686;2023-03-23T00:00:56;99699.41;;;14.71;59.00
60099;BME280;62818;49.394;8.686;2023-03-23T00:01:56;99697.31;;;14.73;59.30
60099;BME280;62818;49.394;8.686;2023-03-23T00:02:57;99697.47;;;14.78;58.72
60099;BME280;62818;49.394;8.686;2023-03-23T00:03:58;99700.59;;;14.75;58.75
60099;BME280;62818;49.394;8.686;2023-03-23T00:04:59;99698.50;;;14.77;58.56
60099;BME280;62818;49.394;8.686;2023-03-23T00:06:01;99698.13;;;14.74;58.63
60099;BME280;62818;49.394;8.686;2023-03-23T00:07:04;99699.09;;;14.79;58.68
60099;BME280;62818;49.394;8.686;2023-03-23T00:08:05;99696.66;;;14.78;58.67
60099;BME280;62818;49.394;8.686;2023-03-23T00:09:05;99686.13;;;14.83;58.96
60099;BME280;62818;49.394;8.686;2023-03-23T00:10:06;99689.31;;;14.73;58.56
60099;BME280;62818;49.394;8.686;2023-03-23T00:11:07;99694.00;;;14.78;58.93
60099;BME280;62818;49.394;8.686;2023-03-23T00:12:08;99687.84;;;14.77;58.56
60099;BME280;62818;49.394;8.686;2023-03-23T00:13:08;99692.13;;;14.78;58.38
60099;BME280;62818;49.394;8.686;2023-03-23T00:14:11;99691.97;;;14.73;58.83
60099;BME280;62818;49.394;8.686;2023-03-23T00:15:16;99691.09;;;14.79;58.35
60099;BME280;62818;49.394;8.686;2023-03-23T00:16:20;99695.56;;;14.85;57.96
60099;BME280;62818;49.394;8.686;2023-03-23T00:17:29;99690.69;;;14.82;58.29
60099;BME280;62818;49.394;8.686;2023-03-23T00:18:33;99685.94;;;14.84;58.04
60099;BME280;62818;49.394;8.686;2023-03-23T00:19:37;99677.94;;;14.84;58.52
60099;BME280;62818;49.394;8.686;2023-03-23T00:20:45;99674.22;;;14.85;58.51
60099;BME280;62818;49.394;8.686;2023-03-23T00:21:49;99671.53;;;14.85;58.23
60099;BME280;62818;49.394;8.686;2023-03-23T00:22:53;99678.53;;;14.87;57.97
60099;BME280;62818;49.394;8.686;2023-03-23T00:25:07;99673.78;;;14.89;57.94
60099;BME280;62818;49.394;8.686;2023-03-23T00:26:12;99670.50;;;14.87;58.15
60099;BME280;62818;49.394;8.686;2023-03-23T00:27:12;99665.59;;;14.83;58.17
60099;BME280;62818;49.394;8.686;2023-03-23T00:28:15;99668.88;;;14.85;57.71
60099;BME280;62818;49.394;8.686;2023-03-23T00:29:19;99668.88;;;14.85;57.88
60099;BME280;62818;49.394;8.686;2023-03-23T00:30:22;99667.84;;;14.87;58.25
60099;BME280;62818;49.394;8.686;2023-03-23T00:31:22;99665.53;;;14.90;58.67
60099;BME280;62818;49.394;8.686;2023-03-23T00:32:24;99667.25;;;14.84;57.86
60099;BME280;62818;49.394;8.686;2023-03-23T00:33:30;99659.69;;;14.81;57.98
60099;BME280;62818;49.394;8.686;2023-03-23T00:34:39;99659.69;;;14.81;58.10
60099;BME280;62818;49.394;8.686;2023-03-23T00:35:41;99663.53;;;14.85;58.36
60099;BME280;62818;49.394;8.686;2023-03-23T00:36:41;99660.28;;;14.83;57.89
60099;BME280;62818;49.394;8.686;2023-03-23T00:37:43;99663.38;;;14.80;57.97
60099;BME280;62818;49.394;8.686;2023-03-23T00:38:44;99659.91;;;14.80;58.12
60099;BME280;62818;49.394;8.686;2023-03-23T00:39:47;99661.53;;;14.81;58.17
60099;BME280;62818;49.394;8.686;2023-03-23T00:40:48;99650.03;;;14.80;58.47
60099;BME280;62818;49.394;8.686;2023-03-23T00:41:48;99655.16;;;14.82;58.01
60099;BME280;62818;49.394;8.686;2023-03-23T00:42:49;99648.41;;;14.79;58.11
60099;BME280;62818;49.394;8.686;2023-03-23T00:43:50;99654.94;;;14.83;58.66
60099;BME280;62818;49.394;8.686;2023-03-23T00:44:51;99647.16;;;14.82;57.90
60099;BME280;62818;49.394;8.686;2023-03-23T00:46:00;99651.66;;;14.81;58.13
60099;BME280;62818;49.394;8.686;2023-03-23T00:47:01;99647.16;;;14.82;57.86
60099;BME280;62818;49.394;8.686;2023-03-23T00:48:03;99648.13;;;14.88;57.95
60099;BME280;62818;49.394;8.686;2023-03-23T00:49:04;99652.44;;;14.89;57.92
60099;BME280;62818;49.394;8.686;2023-03-23T00:50:05;99656.59;;;14.84;57.64
60099;BME280;62818;49.394;8.686;2023-03-23T00:51:06;99652.25;;;14.83;57.76
60099;BME280;62818;49.394;8.686;2023-03-23T00:52:11;99661.09;;;14.84;58.00
60099;BME280;62818;49.394;8.686;2023-03-23T00:53:12;99656.13;;;14.88;57.53
60099;BME280;62818;49.394;8.686;2023-03-23T00:54:13;99656.72;;;14.90;58.49
60099;BME280;62818;49.394;8.686;2023-03-23T00:55:13;99651.09;;;14.98;57.92
60099;BME280;62818;49.394;8.686;2023-03-23T00:56:14;99656.75;;;15.08;58.50
60099;BME280;62818;49.394;8.686;2023-03-23T00:57:15;99661.03;;;14.91;58.07
60099;BME280;62818;49.394;8.686;2023-03-23T00:58:17;99656.59;;;14.84;58.03
60099;BME280;62818;49.394;8.686;2023-03-23T00:59:18;99658.66;;;14.82;57.75
60099;BME280;62818;49.394;8.686;2023-03-23T01:00:19;99656.88;;;14.95;58.41
60099;BME280;62818;49.394;8.686;2023-03-23T01:01:20;99658.06;;;14.99;58.13
60099;BME280;62818;49.394;8.686;2023-03-23T01:02:20;99653.69;;;14.86;57.69
60099;BME280;62818;49.394;8.686;2023-03-23T01:03:24;99655.47;;;14.92;57.74
60099;BME280;62818;49.394;8.686;2023-03-23T01:04:26;99664.72;;;14.90;57.10
60099;BME280;62818;49.394;8.686;2023-03-23T01:05:28;99660.56;;;14.94;57.60
60099;BME280;62818;49.394;8.686;2023-03-23T01:06:34;99663.09;;;14.89;57.42
60099;BME280;62818;49.394;8.686;2023-03-23T01:07:39;99663.53;;;14.85;57.16
60099;BME280;62818;49.394;8.686;2023-03-23T01:08:40;99660.19;;;14.90;57.21
60099;BME280;62818;49.394;8.686;2023-03-23T01:09:45;99656.13;;;14.88;56.61
60099;BME280;62818;49.394;8.686;2023-03-23T01:10:46;99651.59;;;14.88;57.12
60099;BME280;62818;49.394;8.686;2023-03-23T01:11:49;99659.03;;;14.86;56.68
60099;BME280;62818;49.394;8.686;2023-03-23T01:12:51;99646.19;;;14.95;58.01
60099;BME280;62818;49.394;8.686;2023-03-23T01:13:52;99661.47;;;14.88;57.16
60099;BME280;62818;49.394;8.686;2023-03-23T01:14:52;99647.22;;;14.94;56.60
60099;BME280;62818;49.394;8.686;2023-03-23T01:15:53;99649.53;;;14.90;56.73
60099;BME280;62818;49.394;8.686;2023-03-23T01:16:53;99645.50;;;14.81;57.08
60099;BME280;62818;49.394;8.686;2023-03-23T01:17:55;99649.84;;;14.82;57.24
60099;BME280;62818;49.394;8.686;2023-03-23T01:18:56;99650.78;;;14.88;57.17
60099;BME280;62818;49.394;8.686;2023-03-23T01:19:57;99644.69;;;14.80;57.16
60099;BME280;62818;49.394;8.686;2023-03-23T01:20:57;99643.50;;;14.76;57.07
60099;BME280;62818;49.394;8.686;2023-03-23T01:22:04;99634.84;;;14.81;57.77
60099;BME280;62818;49.394;8.686;2023-03-23T01:23:05;99634.91;;;14.74;58.10
60099;BME280;62818;49.394;8.686;2023-03-23T01:24:05;99641.88;;;14.75;57.37
60099;BME280;62818;49.394;8.686;2023-03-23T01:25:08;99640.31;;;14.68;57.65
60099;BME280;62818;49.394;8.686;2023-03-23T01:26:13;99639.06;;;14.70;57.80
60099;BME280;62818;49.394;8.686;2023-03-23T01:27:15;99634.09;;;14.74;58.26
60099;BME280;62818;49.394;8.686;2023-03-23T01:28:15;99635.38;;;14.71;57.64
60099;BME280;62818;49.394;8.686;2023-03-23T01:29:16;99635.97;;;14.73;57.73
60099;BME280;62818;49.394;8.686;2023-03-23T01:30:16;99640.31;;;14.68;57.59
60099;BME280;62818;49.394;8.686;2023-03-23T01:31:19;99632.13;;;14.63;58.21
60099;BME280;62818;49.394;8.686;2023-03-23T01:32:22;99637.94;;;14.60;58.06
60099;BME280;62818;49.394;8.686;2023-03-23T01:33:22;99632.78;;;14.58;57.89
60099;BME280;62818;49.394;8.686;2023-03-23T01:34:23;99628.03;;;14.67;57.70
60099;BME280;62818;49.394;8.686;2023-03-23T01:35:24;99625.56;;;14.65;57.86
60099;BME280;62818;49.394;8.686;2023-03-23T01:36:27;99623.94;;;14.64;57.81
60099;BME280;62818;49.394;8.686;2023-03-23T01:37:32;99628.69;;;14.62;57.98
60099;BME280;62818;49.394;8.686;2023-03-23T01:38:34;99626.44;;;14.59;57.72
60099;BME280;62818;49.394;8.686;2023-03-23T01:39:36;99619.63;;;14.63;57.89
60099;BME280;62818;49.394;8.686;2023-03-23T01:40:37;99624.91;;;14.70;57.92
60099;BME280;62818;49.394;8.686;2023-03-23T01:41:37;99622.63;;;14.73;57.74
60099;BME280;62818;49.394;8.686;2023-03-23T01:42:40;99619.78;;;14.68;57.56
60099;BME280;62818;49.394;8.686;2023-03-23T01:44:07;99614.03;;;14.71;57.92
60099;BME280;62818;49.394;8.686;2023-03-23T01:45:31;99605.41;;;14.69;57.81
60099;BME280;62818;49.394;8.686;2023-03-23T01:46:35;99620.97;;;14.72;57.52
60099;BME280;62818;49.394;8.686;2023-03-23T01:47:36;99608.56;;;14.84;58.38
60099;BME280;62818;49.394;8.686;2023-03-23T01:48:38;99611.81;;;14.87;57.15
60099;BME280;62818;49.394;8.686;2023-03-23T01:49:43;99616.00;;;14.76;57.17
60099;BME280;62818;49.394;8.686;2023-03-23T01:50:48;99618.00;;;14.80;57.61
60099;BME280;62818;49.394;8.686;2023-03-23T01:51:56;99615.16;;;14.82;57.49
60099;BME280;62818;49.394;8.686;2023-03-23T01:53:01;99618.47;;;14.77;56.95
60099;BME280;62818;49.394;8.686;2023-03-23T01:54:09;99620.09;;;14.78;57.05
60099;BME280;62818;49.394;8.686;2023-03-23T01:55:14;99612.31;;;14.77;57.73
60099;BME280;62818;49.394;8.686;2023-03-23T01:56:20;99608.97;;;14.81;57.27
60099;BME280;62818;49.394;8.686;2023-03-23T01:57:26;99610.41;;;14.84;58.63
60099;BME280;62818;49.394;8.686;2023-03-23T01:58:30;99612.25;;;14.83;57.65
60099;BME280;62818;49.394;8.686;2023-03-23T01:59:34;99606.38;;;14.75;57.51
60099;BME280;62818;49.394;8.686;2023-03-23T02:00:36;99597.56;;;14.74;57.30
60099;BME280;62818;49.394;8.686;2023-03-23T02:01:41;99602.91;;;14.74;56.96
60099;BME280;62818;49.394;8.686;2023-03-23T02:02:47;99601.56;;;14.83;57.73
60099;BME280;62818;49.394;8.686;2023-03-23T02:03:52;99597.13;;;14.77;57.20
60099;BME280;62818;49.394;8.686;2023-03-23T02:04:57;99599.50;;;14.85;57.16
60099;BME280;62818;49.394;8.686;2023-03-23T02:06:02;99587.28;;;14.78;56.95
60099;BME280;62818;49.394;8.686;2023-03-23T02:07:03;99583.41;;;14.74;57.22
60099;BME280;62818;49.394;8.686;2023-03-23T02:08:06;99583.31;;;14.80;57.43
60099;BME280;62818;49.394;8.686;2023-03-23T02:09:09;99582.31;;;14.81;57.84
60099;BME280;62818;49.394;8.686;2023-03-23T02:10:09;99586.47;;;14.77;57.17
60099;BME280;62818;49.394;8.686;2023-03-23T02:11:18;99587.22;;;14.84;57.12
60099;BME280;62818;49.394;8.686;2023-03-23T02:12:20;99573.63;;;14.86;56.72
60099;BME280;62818;49.394;8.686;2023-03-23T02:13:21;99582.75;;;14.78;56.84
60099;BME280;62818;49.394;8.686;2023-03-23T02:14:23;99572.22;;;14.83;56.60
60099;BME280;62818;49.394;8.686;2023-03-23T02:15:30;99562.13;;;14.85;56.88
60099;BME280;62818;49.394;8.686;2023-03-23T02:18:38;99575.31;;;14.80;56.96
60099;BME280;62818;49.394;8.686;2023-03-23T02:26:49;99553.38;;;14.97;57.34
60099;BME280;62818;49.394;8.686;2023-03-23T02:31:46;99556.56;;;14.87;57.06
60099;BME280;62818;49.394;8.686;2023-03-23T02:34:39;99565.97;;;14.90;56.38
60099;BME280;62818;49.394;8.686;2023-03-23T02:36:02;99563.47;;;14.95;56.25
60099;BME280;62818;49.394;8.686;2023-03-23T02:39:03;99572.81;;;14.85;56.75
60099;BME280;62818;49.394;8.686;2023-03-23T02:40:18;99576.91;;;14.88;56.35
60099;BME280;62818;49.394;8.686;2023-03-23T02:41:28;99565.72;;;14.98;57.44
60099;BME280;62818;49.394;8.686;2023-03-23T02:42:36;99566.88;;;15.02;57.04
60099;BME280;62818;49.394;8.686;2023-03-23T02:43:43;99573.56;;;14.93;56.55
60099;BME280;62818;49.394;8.686;2023-03-23T02:44:47;99570.31;;;14.91;56.75
60099;BME280;62818;49.394;8.686;2023-03-23T02:45:50;99565.47;;;14.99;57.71
60099;BME280;62818;49.394;8.686;2023-03-23T02:46:54;99566.28;;;15.00;56.89
60099;BME280;62818;49.394;8.686;2023-03-23T02:47:55;99563.03;;;14.98;57.95
60099;BME280;62818;49.394;8.686;2023-03-23T02:48:57;99548.44;;;15.00;56.77
60099;BME280;62818;49.394;8.686;2023-03-23T02:50:00;99552.31;;;15.16;58.53
60099;BME280;62818;49.394;8.686;2023-03-23T02:51:03;99558.22;;;15.06;56.97
60099;BME280;62818;49.394;8.686;2023-03-23T02:52:10;99544.19;;;14.93;56.99
60099;BME280;62818;49.394;8.686;2023-03-23T02:53:19;99545.22;;;14.92;56.90
60099;BME280;62818;49.394;8.686;2023-03-23T02:54:24;99548.56;;;14.87;56.92
60099;BME280;62818;49.394;8.686;2023-03-23T02:55:27;99546.94;;;15.04;57.78
60099;BME280;62818;49.394;8.686;2023-03-23T02:56:31;99545.06;;;15.05;56.78
60099;BME280;62818;49.394;8.686;2023-03-23T02:57:33;99542.94;;;14.95;56.51
60099;BME280;62818;49.394;8.686;2023-03-23T02:58:35;99543.38;;;14.92;56.71
60099;BME280;62818;49.394;8.686;2023-03-23T02:59:36;99548.47;;;14.94;57.47
60099;BME280;62818;49.394;8.686;2023-03-23T03:00:37;99542.72;;;14.97;56.85
60099;BME280;62818;49.394;8.686;2023-03-23T03:02:42;99542.72;;;14.97;56.75
60099;BME280;62818;49.394;8.686;2023-03-23T03:03:44;99555.63;;;15.00;57.49
60099;BME280;62818;49.394;8.686;2023-03-23T03:04:52;99544.78;;;14.95;56.84
60099;BME280;62818;49.394;8.686;2023-03-23T03:07:49;99549.38;;;14.88;57.83
60099;BME280;62818;49.394;8.686;2023-03-23T03:11:42;99539.91;;;14.92;56.97
60099;BME280;62818;49.394;8.686;2023-03-23T03:14:22;99549.84;;;14.84;57.08
60099;BME280;62818;49.394;8.686;2023-03-23T03:15:43;99551.31;;;14.80;56.98
60099;BME280;62818;49.394;8.686;2023-03-23T03:18:20;99549.03;;;14.84;57.00
60099;BME280;62818;49.394;8.686;2023-03-23T03:19:32;99547.19;;;14.84;57.21
60099;BME280;62818;49.394;8.686;2023-03-23T03:20:38;99540.72;;;14.92;56.77
60099;BME280;62818;49.394;8.686;2023-03-23T03:21:47;99552.22;;;14.93;56.86
60099;BME280;62818;49.394;8.686;2023-03-23T03:22:50;99547.31;;;14.90;57.12
60099;BME280;62818;49.394;8.686;2023-03-23T03:23:54;99554.28;;;14.91;56.98
60099;BME280;62818;49.394;8.686;2023-03-23T03:25:01;99549.84;;;14.84;57.42
60099;BME280;62818;49.394;8.686;2023-03-23T03:26:03;99539.91;;;14.92;57.37
60099;BME280;62818;49.394;8.686;2023-03-23T03:27:11;99546.59;;;14.82;57.27
60099;BME280;62818;49.394;8.686;2023-03-23T03:28:18;99543.47;;;14.85;57.82
60099;BME280;62818;49.394;8.686;2023-03-23T03:29:25;99544.94;;;14.81;57.28
60099;BME280;62818;49.394;8.686;2023-03-23T03:30:32;99540.88;;;14.79;57.60
60099;BME280;62818;49.394;8.686;2023-03-23T03:31:39;99534.56;;;14.92;57.91
60099;BME280;62818;49.394;8.686;2023-03-23T03:32:48;99544.94;;;14.81;57.31
60099;BME280;62818;49.394;8.686;2023-03-23T03:33:53;99540.88;;;14.79;57.56
60099;BME280;62818;49.394;8.686;2023-03-23T03:34:54;99548.63;;;14.80;57.85
60099;BME280;62818;49.394;8.686;2023-03-23T03:35:55;99557.28;;;14.82;57.73
60099;BME280;62818;49.394;8.686;2023-03-23T03:36:58;99546.63;;;14.76;57.67
60099;BME280;62818;49.394;8.686;2023-03-23T03:38:06;99547.94;;;14.73;57.99
60099;BME280;62818;49.394;8.686;2023-03-23T03:39:09;99552.44;;;14.73;57.89
60099;BME280;62818;49.394;8.686;2023-03-23T03:40:16;99551.78;;;14.77;58.04
60099;BME280;62818;49.394;8.686;2023-03-23T03:41:19;99553.63;;;14.77;57.96
60099;BME280;62818;49.394;8.686;2023-03-23T03:42:20;99563.78;;;14.87;58.21
60099;BME280;62818;49.394;8.686;2023-03-23T03:43:21;99557.53;;;14.74;58.04
60099;BME280;62818;49.394;8.686;2023-03-23T03:44:22;99556.53;;;14.75;58.38
60099;BME280;62818;49.394;8.686;2023-03-23T03:45:22;99554.06;;;14.74;58.32
60099;BME280;62818;49.394;8.686;2023-03-23T03:46:22;99553.25;;;14.73;58.25
60099;BME280;62818;49.394;8.686;2023-03-23T03:47:26;99557.69;;;14.79;58.75
60099;BME280;62818;49.394;8.686;2023-03-23T03:48:27;99558.59;;;14.73;58.83
60099;BME280;62818;49.394;8.686;2023-03-23T03:49:28;99561.09;;;14.68;58.36
60099;BME280;62818;49.394;8.686;2023-03-23T03:50:28;99566.00;;;14.71;58.30
60099;BME280;62818;49.394;8.686;2023-03-23T03:51:30;99567.94;;;14.82;58.75
60099;BME280;62818;49.394;8.686;2023-03-23T03:52:32;99569.47;;;14.90;59.14
60099;BME280;62818;49.394;8.686;2023-03-23T03:53:33;99564.94;;;14.72;58.25
60099;BME280;62818;49.394;8.686;2023-03-23T03:54:34;99558.59;;;14.73;59.18
60099;BME280;62818;49.394;8.686;2023-03-23T03:55:35;99553.25;;;14.73;59.99
60099;BME280;62818;49.394;8.686;2023-03-23T03:56:36;99545.94;;;14.69;58.79
60099;BME280;62818;49.394;8.686;2023-03-23T03:57:40;99542.88;;;14.65;59.31
60099;BME280;62818;49.394;8.686;2023-03-23T03:58:42;99546.22;;;14.79;59.10
60099;BME280;62818;49.394;8.686;2023-03-23T03:59:43;99549.19;;;14.71;58.83
60099;BME280;62818;49.394;8.686;2023-03-23T04:00:44;99550.44;;;14.68;59.17
60099;BME280;62818;49.394;8.686;2023-03-23T04:01:48;99552.34;;;14.61;59.25
60099;BME280;62818;49.394;8.686;2023-03-23T04:02:54;99552.06;;;14.69;59.08
60099;BME280;62818;49.394;8.686;2023-03-23T04:03:55;99548.34;;;14.70;59.37
60099;BME280;62818;49.394;8.686;2023-03-23T04:04:56;99546.44;;;14.77;59.49
60099;BME280;62818;49.394;8.686;2023-03-23T04:05:57;99545.03;;;14.75;58.96
60099;BME280;62818;49.394;8.686;2023-03-23T04:06:59;99548.34;;;14.70;59.35
60099;BME280;62818;49.394;8.686;2023-03-23T04:08:02;99547.19;;;14.66;59.51
60099;BME280;62818;49.394;8.686;2023-03-23T04:09:05;99552.13;;;14.63;59.12
60099;BME280;62818;49.394;8.686;2023-03-23T04:10:06;99547.59;;;14.63;59.58
60099;BME280;62818;49.394;8.686;2023-03-23T04:11:09;99548.00;;;14.67;60.03
60099;BME280;62818;49.394;8.686;2023-03-23T04:12:11;99551.34;;;14.62;59.78
60099;BME280;62818;49.394;8.686;2023-03-23T04:13:12;99547.19;;;14.66;60.10
60099;BME280;62818;49.394;8.686;2023-03-23T04:14:13;99547.59;;;14.63;60.18
60099;BME280;62818;49.394;8.686;2023-03-23T04:15:13;99553.03;;;14.75;59.77
60099;BME280;62818;49.394;8.686;2023-03-23T04:16:14;99551.53;;;14.79;59.70
60099;BME280;62818;49.394;8.686;2023-03-23T04:17:17;99549.25;;;14.82;60.42
60099;BME280;62818;49.394;8.686;2023-03-23T04:18:18;99552.75;;;14.65;59.68
60099;BME280;62818;49.394;8.686;2023-03-23T04:19:19;99554.88;;;14.74;59.70
60099;BME280;62818;49.394;8.686;2023-03-23T04:20:19;99565.94;;;14.78;59.96
60099;BME280;62818;49.394;8.686;2023-03-23T04:21:20;99566.00;;;14.71;59.72
60099;BME280;62818;49.394;8.686;2023-03-23T04:22:20;99558.59;;;14.73;59.75
60099;BME280;62818;49.394;8.686;2023-03-23T04:23:26;99568.06;;;14.69;59.96
60099;BME280;62818;49.394;8.686;2023-03-23T04:24:27;99563.84;;;14.62;60.32
60099;BME280;62818;49.394;8.686;2023-03-23T04:25:31;99566.44;;;14.68;60.78
60099;BME280;62818;49.394;8.686;2023-03-23T04:26:32;99572.22;;;14.65;60.24
60099;BME280;62818;49.394;8.686;2023-03-23T04:27:33;99568.06;;;14.69;60.49
60099;BME280;62818;49.394;8.686;2023-03-23T04:28:34;99574.53;;;14.80;60.61
60099;BME280;62818;49.394;8.686;2023-03-23T04:29:35;99575.47;;;14.67;60.01
60099;BME280;62818;49.394;8.686;2023-03-23T04:30:36;99572.22;;;14.65;60.42
60099;BME280;62818;49.394;8.686;2023-03-23T04:31:36;99572.66;;;14.80;60.38
60099;BME280;62818;49.394;8.686;2023-03-23T04:32:37;99574.72;;;14.78;60.56
60099;BME280;62818;49.394;8.686;2023-03-23T04:33:40;99570.59;;;14.64;60.41
60099;BME280;62818;49.394;8.686;2023-03-23T04:34:41;99576.22;;;14.74;61.13
60099;BME280;62818;49.394;8.686;2023-03-23T04:35:43;99568.22;;;14.74;60.59
60099;BME280;62818;49.394;8.686;2023-03-23T04:36:45;99568.34;;;14.61;60.65
60099;BME280;62818;49.394;8.686;2023-03-23T04:37:48;99579.47;;;14.58;60.64
60099;BME280;62818;49.394;8.686;2023-03-23T04:38:50;99573.91;;;14.60;60.71
60099;BME280;62818;49.394;8.686;2023-03-23T04:39:52;99579.47;;;14.58;60.88
60099;BME280;62818;49.394;8.686;2023-03-23T04:41:00;99577.63;;;14.77;60.99
60099;BME280;62818;49.394;8.686;2023-03-23T04:42:02;99582.28;;;14.63;60.96
60099;BME280;62818;49.394;8.686;2023-03-23T04:43:03;99584.34;;;14.61;61.01
60099;BME280;62818;49.394;8.686;2023-03-23T04:44:06;99585.41;;;14.60;61.01
60099;BME280;62818;49.394;8.686;2023-03-23T04:45:08;99583.94;;;14.64;61.16
60099;BME280;62818;49.394;8.686;2023-03-23T04:46:09;99585.69;;;14.70;61.32
60099;BME280;62818;49.394;8.686;2023-03-23T04:47:10;99585.63;;;14.59;61.41
60099;BME280;62818;49.394;8.686;2023-03-23T04:48:10;99581.75;;;14.55;61.62
60099;BME280;62818;49.394;8.686;2023-03-23T04:49:13;99586.28;;;14.72;62.22
60099;BME280;62818;49.394;8.686;2023-03-23T04:50:15;99596.38;;;14.70;61.63
60099;BME280;62818;49.394;8.686;2023-03-23T04:51:15;99588.59;;;14.69;61.56
60099;BME280;62818;49.394;8.686;2023-03-23T04:52:16;99580.94;;;14.54;62.19
60099;BME280;62818;49.394;8.686;2023-03-23T04:53:16;99593.41;;;14.60;62.15
60099;BME280;62818;49.394;8.686;2023-03-23T04:54:18;99591.09;;;14.64;62.68
60099;BME280;62818;49.394;8.686;2023-03-23T04:55:18;99589.88;;;14.42;63.31
60099;BME280;62818;49.394;8.686;2023-03-23T04:56:20;99588.22;;;14.47;64.52
60099;BME280;62818;49.394;8.686;2023-03-23T04:57:20;99587.88;;;14.37;65.22
60099;BME280;62818;49.394;8.686;2023-03-23T04:58:22;99596.56;;;14.26;65.65
60099;BME280;62818;49.394;8.686;2023-03-23T04:59:24;99593.88;;;14.26;66.98
60099;BME280;62818;49.394;8.686;2023-03-23T05:00:27;99595.09;;;14.30;65.96
60099;BME280;62818;49.394;8.686;2023-03-23T05:01:29;99598.38;;;14.32;66.37
60099;BME280;62818;49.394;8.686;2023-03-23T05:02:29;99599.81;;;14.28;67.95
60099;BME280;62818;49.394;8.686;2023-03-23T05:03:30;99599.00;;;14.28;67.73
60099;BME280;62818;49.394;8.686;2023-03-23T05:04:31;99595.09;;;14.30;68.71
60099;BME280;62818;49.394;8.686;2023-03-23T05:05:34;99599.97;;;14.40;69.10
60099;BME280;62818;49.394;8.686;2023-03-23T05:06:34;99596.31;;;14.34;67.81
60099;BME280;62818;49.394;8.686;2023-03-23T05:07:36;99603.28;;;14.35;67.88
60099;BME280;62818;49.394;8.686;2023-03-23T05:08:38;99609.50;;;14.29;68.15
60099;BME280;62818;49.394;8.686;2023-03-23T05:09:39;99594.75;;;14.20;67.76
60099;BME280;62818;49.394;8.686;2023-03-23T05:10:39;99601.56;;;14.16;68.97
60099;BME280;62818;49.394;8.686;2023-03-23T05:11:40;99608.69;;;14.22;69.54
60099;BME280;62818;49.394;8.686;2023-03-23T05:12:41;99614.44;;;14.19;67.12
60099;BME280;62818;49.394;8.686;2023-03-23T05:13:42;99618.53;;;14.22;67.51
60099;BME280;62818;49.394;8.686;2023-03-23T05:14:44;99611.63;;;14.14;68.46
60099;BME280;62818;49.394;8.686;2023-03-23T05:15:45;99611.88;;;14.06;70.31
60099;BME280;62818;49.394;8.686;2023-03-23T05:16:45;99615.38;;;14.06;70.90
60099;BME280;62818;49.394;8.686;2023-03-23T05:17:52;99619.31;;;13.97;70.53
60099;BME280;62818;49.394;8.686;2023-03-23T05:18:53;99615.00;;;14.03;70.46
60099;BME280;62818;49.394;8.686;2023-03-23T05:19:57;99606.69;;;13.86;71.58
60099;BME280;62818;49.394;8.686;2023-03-23T05:21:02;99603.44;;;13.84;72.61
60099;BME280;62818;49.394;8.686;2023-03-23T05:22:04;99611.41;;;13.84;73.26
60099;BME280;62818;49.394;8.686;2023-03-23T05:23:04;99611.06;;;14.05;73.27
60099;BME280;62818;49.394;8.686;2023-03-23T05:24:06;99605.63;;;13.94;72.81
60099;BME280;62818;49.394;8.686;2023-03-23T05:25:07;99604.75;;;14.00;72.88
60099;BME280;62818;49.394;8.686;2023-03-23T05:26:09;99609.31;;;13.93;74.21
60099;BME280;62818;49.394;8.686;2023-03-23T05:27:10;99606.06;;;13.91;74.78
60099;BME280;62818;49.394;8.686;2023-03-23T05:28:11;99608.16;;;13.82;75.52
60099;BME280;62818;49.394;8.686;2023-03-23T05:29:12;99607.94;;;13.84;75.19
60099;BME280;62818;49.394;8.686;2023-03-23T05:30:12;99607.34;;;13.82;74.47
60099;BME280;62818;49.394;8.686;2023-03-23T05:31:16;99613.13;;;13.79;75.23
60099;BME280;62818;49.394;8.686;2023-03-23T05:32:16;99609.41;;;13.80;75.38
60099;BME280;62818;49.394;8.686;2023-03-23T05:33:19;99611.97;;;13.93;75.42
60099;BME280;62818;49.394;8.686;2023-03-23T05:34:20;99612.66;;;13.82;76.30
60099;BME280;62818;49.394;8.686;2023-03-23T05:35:21;99614.59;;;13.68;77.11
60099;BME280;62818;49.394;8.686;2023-03-23T05:36:21;99618.25;;;13.74;76.90
60099;BME280;62818;49.394;8.686;2023-03-23T05:37:24;99614.09;;;13.84;76.97
60099;BME280;62818;49.394;8.686;2023-03-23T05:38:32;99611.72;;;13.70;77.33
60099;BME280;62818;49.394;8.686;2023-03-23T05:39:33;99617.56;;;13.85;77.36
60099;BME280;62818;49.394;8.686;2023-03-23T05:40:34;99623.91;;;13.84;77.11
60099;BME280;62818;49.394;8.686;2023-03-23T05:41:34;99618.84;;;13.76;77.57
60099;BME280;62818;49.394;8.686;2023-03-23T05:42:36;99621.94;;;13.73;77.32
60099;BME280;62818;49.394;8.686;2023-03-23T05:43:36;99611.53;;;13.65;78.48
60099;BME280;62818;49.394;8.686;2023-03-23T05:44:37;99616.88;;;13.65;76.74
60099;BME280;62818;49.394;8.686;2023-03-23T05:45:37;99619.28;;;13.73;77.56
60099;BME280;62818;49.394;8.686;2023-03-23T05:46:39;99616.47;;;13.68;77.45
60099;BME280;62818;49.394;8.686;2023-03-23T05:47:40;99618.69;;;13.71;77.66
60099;BME280;62818;49.394;8.686;2023-03-23T05:48:41;99616.59;;;13.73;77.05
60099;BME280;62818;49.394;8.686;2023-03-23T05:49:41;99613.56;;;13.69;75.99
60099;BME280;62818;49.394;8.686;2023-03-23T05:50:42;99609.44;;;13.73;76.79
60099;BME280;62818;49.394;8.686;2023-03-23T05:51:43;99610.94;;;13.63;77.47
60099;BME280;62818;49.394;8.686;2023-03-23T05:52:46;99603.88;;;13.75;76.49
60099;BME280;62818;49.394;8.686;2023-03-23T05:53:46;99611.53;;;13.65;76.82
60099;BME280;62818;49.394;8.686;2023-03-23T05:54:48;99611.34;;;13.60;76.87
60099;BME280;62818;49.394;8.686;2023-03-23T05:55:48;99603.78;;;13.63;76.92
60099;BME280;62818;49.394;8.686;2023-03-23T05:56:49;99604.63;;;13.57;76.47
60099;BME280;62818;49.394;8.686;2023-03-23T05:57:49;99608.19;;;13.76;77.05
60099;BME280;62818;49.394;8.686;2023-03-23T05:58:50;99605.34;;;13.71;75.93
60099;BME280;62818;49.394;8.686;2023-03-23T05:59:50;99608.19;;;13.76;75.88